Terminal Aerodrome Forecast
Issued by NWS

Home | Current Version | Previous Version | Text Only | Print | Product List | Glossary Off
Versions: 1 2 3 4 5 6 7 8 9 10 11 12 13 14 15 16 17 18 19 20 21 22 23 24 25 26 27 28 29 30 31

000
FTUS43 KLOT 292106 AAA
TAFORD
TAF AMD
KORD 292106Z 2921/3024 04008KT 6SM SHRA BR VCTS SCT025CB BKN060
      TEMPO 2921/2923 VRB12G18KT 4SM -TSRA BR BKN015CB
     FM300100 06009KT P6SM VCSH BKN040
     FM300700 05004KT 6SM BR FEW020 BKN045
     FM301500 06010KT P6SM VCSH BKN045=

USA.gov is the U.S. government's official web portal to all federal, state and local government web resources and services.